Startpagina
METAR-TAF:

METAR-TAF

Vliegvelden :

Luchthaven Pointe-Noire

Pointe-Noire, Congo

breedte: 04-49S, lengte: 011-54E, hoogte: 17 m

Actueel weer

Dit bericht is 36 minuten geleden gemaakt, om 10:00 UTC
Wind 7 kt uit het zuidzuidwesten
Temperatuur 26°C
Vochtigheid 79%
Druk 1013 hPa
Zicht 10 km of meer
Verspreide wolken op 1100 ft
Geheel bewolkt op 2100 ft

METAR: FCPP 191000Z 20007KT 9999 SCT011 OVC021 26/22 Q1013 NOSIG

Tijdstip: 11:36 (10:36 UTC)

Verwachting

Dit bericht is 5 uur en het 36 minuten geleden gemaakt, om 05:00 UTC
Verwachting geldig van 19 om 06 UTC tot 20 om 06 UTC
Wind 6 kt uit het zuidzuidwesten
Zicht: 8000 m
Verspreide wolken op 1000 ft
Gebroken wolken op 2300 ft

TAF: FCPP 190500Z 1906/2006 20006KT 8000 SCT010 BKN023

Waarnemingen en weersverwachtingen van meer dan 4000 vliegvelden (METAR en TAF).

De beschikbare stations zijn de gele en rode punten op de kaart.

Ga met uw muis naar het station om de naam te zien.

Klik dan om waarnemingen en weersverwachtingen te zien.

kaart wijzigen: klik op de groene knoppen met een zwart kruis om in te zoomen, op de groene knop met een streepje om uit te zoomen of op de groene pijlen voor aangrenzende kaarten.


METAR-TAF: